createdAt,value
2017-09-08T00:00:53.504Z,23.10
2017-09-08T00:03:22.742Z,23.00
2017-09-08T00:05:51.638Z,23.00
2017-09-08T00:08:20.524Z,23.00
2017-09-08T00:10:50.822Z,23.00
2017-09-08T00:13:20.132Z,23.00
2017-09-08T00:15:49.228Z,23.00
2017-09-08T00:18:18.139Z,23.00
2017-09-08T00:20:47.234Z,23.00
2017-09-08T00:23:16.330Z,22.90
2017-09-08T00:25:45.221Z,22.90
2017-09-08T00:28:14.318Z,22.90
2017-09-08T00:30:44.030Z,22.90
2017-09-08T00:33:14.744Z,22.80
2017-09-08T00:35:44.271Z,22.80
2017-09-08T00:38:13.979Z,22.70
2017-09-08T00:40:44.480Z,22.60
2017-09-08T00:43:13.603Z,22.60
2017-09-08T00:45:42.703Z,22.60
2017-09-08T00:48:12.111Z,22.60
2017-09-08T00:50:41.165Z,22.60
2017-09-08T00:53:10.390Z,22.60
2017-09-08T00:55:39.391Z,22.60
2017-09-08T00:58:09.099Z,22.50
2017-09-08T01:00:37.960Z,22.50
2017-09-08T01:03:07.117Z,22.50
2017-09-08T01:05:36.796Z,22.50
2017-09-08T01:08:05.688Z,22.50
2017-09-08T01:10:34.789Z,22.50
2017-09-08T01:13:04.492Z,22.40
2017-09-08T01:15:34.217Z,22.40
2017-09-08T01:18:04.119Z,22.40
2017-09-08T01:20:33.216Z,22.40
2017-09-08T01:23:04.901Z,22.40
2017-09-08T01:25:34.449Z,22.30
2017-09-08T01:28:04.905Z,22.30
2017-09-08T01:30:33.921Z,22.30
2017-09-08T01:33:04.007Z,22.30
2017-09-08T01:35:33.010Z,22.30
2017-09-08T01:38:01.903Z,22.30
2017-09-08T01:40:30.889Z,22.30
2017-09-08T01:43:00.163Z,22.30
2017-09-08T01:45:29.088Z,22.30
2017-09-08T01:47:59.005Z,22.20
2017-09-08T01:50:28.097Z,22.20
2017-09-08T01:52:58.231Z,22.10
2017-09-08T01:55:27.119Z,22.10
2017-09-08T01:57:57.023Z,22.10
2017-09-08T02:00:26.325Z,22.10
2017-09-08T02:02:56.444Z,22.10
2017-09-08T02:05:26.359Z,22.00
2017-09-08T02:07:55.250Z,22.00
2017-09-08T02:10:25.063Z,21.90
2017-09-08T02:12:54.058Z,22.00
2017-09-08T02:15:23.154Z,21.90
2017-09-08T02:17:52.045Z,22.00
2017-09-08T02:20:20.935Z,22.00
2017-09-08T02:22:49.826Z,22.00
2017-09-08T02:25:19.304Z,22.00
2017-09-08T02:27:48.245Z,22.00
2017-09-08T02:30:17.932Z,22.00
2017-09-08T02:32:47.744Z,22.00
2017-09-08T02:35:16.806Z,22.00
2017-09-08T02:37:48.190Z,22.10
2017-09-08T02:40:17.292Z,22.10
2017-09-08T02:42:54.421Z,22.10
2017-09-08T02:45:26.584Z,22.10
2017-09-08T02:47:55.432Z,22.10
2017-09-08T02:50:24.322Z,22.10
2017-09-08T02:52:53.222Z,22.10
2017-09-08T02:55:23.351Z,22.10
2017-09-08T02:57:53.044Z,22.00
2017-09-08T03:00:21.939Z,22.00
2017-09-08T03:02:51.029Z,21.90
2017-09-08T03:05:20.098Z,22.00
2017-09-08T03:07:49.015Z,21.90
2017-09-08T03:10:17.876Z,21.90
2017-09-08T03:12:47.822Z,21.90
2017-09-08T03:15:17.532Z,22.00
2017-09-08T03:17:46.658Z,22.00
2017-09-08T03:20:17.157Z,21.90
2017-09-08T03:22:46.224Z,21.90
2017-09-08T03:25:15.331Z,21.80
2017-09-08T03:27:44.478Z,21.80
2017-09-08T03:30:13.540Z,21.80
2017-09-08T03:32:42.635Z,21.80
2017-09-08T03:35:11.532Z,21.80
2017-09-08T03:37:40.622Z,21.80
2017-09-08T03:40:09.515Z,21.70
2017-09-08T03:42:38.511Z,21.70
2017-09-08T03:45:07.501Z,21.70
2017-09-08T03:47:36.394Z,21.70
2017-09-08T03:50:05.455Z,21.80
2017-09-08T03:52:34.485Z,21.70
2017-09-08T03:55:03.679Z,21.70
2017-09-08T03:57:32.570Z,21.60
2017-09-08T04:00:01.359Z,21.60
2017-09-08T04:02:30.657Z,21.50
2017-09-08T04:04:59.964Z,21.60
2017-09-08T04:07:29.258Z,21.60
2017-09-08T04:09:58.233Z,21.60
2017-09-08T04:12:27.259Z,21.60
2017-09-08T04:14:56.137Z,21.50
2017-09-08T04:17:26.268Z,21.50
2017-09-08T04:19:56.700Z,21.60
2017-09-08T04:22:26.047Z,21.60
2017-09-08T04:24:55.937Z,21.40
2017-09-08T04:27:25.645Z,21.40
2017-09-08T04:30:00.948Z,21.40
2017-09-08T04:32:30.129Z,21.50
2017-09-08T04:34:59.030Z,21.60
2017-09-08T04:37:29.353Z,21.70
2017-09-08T04:39:58.448Z,21.70
2017-09-08T04:42:27.550Z,21.80
2017-09-08T04:44:56.670Z,21.90
2017-09-08T04:47:25.872Z,21.90
2017-09-08T04:49:54.757Z,21.90
2017-09-08T04:52:23.750Z,21.80
2017-09-08T04:54:52.814Z,21.80
2017-09-08T04:57:21.840Z,21.70
2017-09-08T04:59:51.498Z,21.70
2017-09-08T05:02:20.239Z,21.60
2017-09-08T05:04:49.316Z,21.60
2017-09-08T05:07:19.793Z,21.70
2017-09-08T05:09:49.361Z,21.60
2017-09-08T05:12:18.358Z,21.60
2017-09-08T05:14:47.868Z,21.60
2017-09-08T05:17:16.864Z,21.60
2017-09-08T05:19:46.067Z,21.60
2017-09-08T05:22:14.929Z,21.60
2017-09-08T05:24:44.871Z,21.60
2017-09-08T05:27:13.754Z,21.60
2017-09-08T05:29:43.858Z,21.60
2017-09-08T05:32:12.767Z,21.70
2017-09-08T05:34:41.841Z,21.80
2017-09-08T05:37:10.899Z,21.70
2017-09-08T05:39:39.745Z,21.70
2017-09-08T05:42:08.816Z,21.70
2017-09-08T05:44:37.733Z,21.70
2017-09-08T05:47:07.650Z,21.70
2017-09-08T05:49:36.744Z,21.70
2017-09-08T05:52:06.327Z,21.80
2017-09-08T05:54:35.430Z,21.90
2017-09-08T05:57:05.259Z,21.90
2017-09-08T05:59:34.251Z,21.90
2017-09-08T06:02:03.439Z,21.90
2017-09-08T06:04:32.345Z,21.90
2017-09-08T06:07:02.259Z,22.00
2017-09-08T06:09:31.113Z,21.90
2017-09-08T06:12:00.258Z,22.00
2017-09-08T06:14:29.340Z,22.10
2017-09-08T06:16:58.495Z,22.10
2017-09-08T06:19:27.884Z,22.10
2017-09-08T06:21:57.397Z,22.20
2017-09-08T06:24:26.575Z,22.20
2017-09-08T06:26:55.841Z,22.20
2017-09-08T06:29:25.000Z,22.20
2017-09-08T06:31:54.366Z,22.20
2017-09-08T06:34:23.853Z,22.30
2017-09-08T06:36:53.046Z,22.30
2017-09-08T06:39:21.941Z,22.20
2017-09-08T06:41:51.210Z,22.30
2017-09-08T06:44:20.749Z,22.30
2017-09-08T06:46:50.240Z,22.20
2017-09-08T06:49:19.867Z,22.20
2017-09-08T06:51:49.036Z,22.20
2017-09-08T06:54:18.400Z,22.30
2017-09-08T06:56:48.059Z,22.30
2017-09-08T06:59:18.063Z,22.30
2017-09-08T07:01:47.306Z,22.20
2017-09-08T07:04:16.334Z,22.10
2017-09-08T07:06:45.169Z,22.00
2017-09-08T07:09:14.674Z,22.20
2017-09-08T07:11:43.874Z,22.20
2017-09-08T07:14:13.167Z,22.20
2017-09-08T07:16:42.263Z,22.10
2017-09-08T07:19:11.770Z,22.10
2017-09-08T07:21:40.919Z,22.20
2017-09-08T07:24:09.735Z,22.20
2017-09-08T07:26:38.968Z,22.20
2017-09-08T07:29:07.858Z,22.20
2017-09-08T07:31:36.946Z,22.20
2017-09-08T07:34:06.243Z,22.20
2017-09-08T07:36:36.779Z,22.20
2017-09-08T07:39:06.310Z,22.30
2017-09-08T07:41:35.523Z,22.30
2017-09-08T07:44:04.659Z,22.40
2017-09-08T07:46:33.797Z,22.40
2017-09-08T07:49:03.218Z,22.50
2017-09-08T07:51:32.456Z,22.50
2017-09-08T07:54:01.573Z,22.50
2017-09-08T07:56:30.516Z,22.40
2017-09-08T07:58:59.688Z,22.40
2017-09-08T08:01:29.909Z,22.50
2017-09-08T08:03:59.712Z,22.90
2017-09-08T08:06:29.634Z,23.20
2017-09-08T08:08:59.388Z,23.20
2017-09-08T08:11:28.671Z,23.20
2017-09-08T08:13:57.918Z,23.40
2017-09-08T08:16:28.340Z,23.40
2017-09-08T08:18:59.322Z,23.40
2017-09-08T08:21:30.091Z,23.40
2017-09-08T08:23:59.061Z,23.20
2017-09-08T08:26:28.730Z,23.10
2017-09-08T08:28:57.955Z,23.10
2017-09-08T08:31:27.907Z,23.20
2017-09-08T08:33:56.936Z,23.20
2017-09-08T08:36:27.745Z,23.20
2017-09-08T08:38:57.628Z,23.20
2017-09-08T08:41:27.792Z,23.40
2017-09-08T08:43:56.806Z,23.30
2017-09-08T08:46:26.859Z,23.70
2017-09-08T08:48:56.946Z,24.10
2017-09-08T08:51:26.972Z,24.40
2017-09-08T08:53:58.261Z,24.40
2017-09-08T08:56:27.090Z,24.60
2017-09-08T08:58:57.721Z,24.20
2017-09-08T09:01:27.068Z,24.10
2017-09-08T09:03:56.108Z,24.30
2017-09-08T09:06:25.133Z,24.20
2017-09-08T09:08:56.053Z,24.40
2017-09-08T09:11:28.401Z,24.40
2017-09-08T09:13:57.315Z,24.40
2017-09-08T09:16:26.588Z,24.40
2017-09-08T09:18:55.711Z,24.60
2017-09-08T09:21:25.058Z,24.20
2017-09-08T09:23:54.007Z,24.60
2017-09-08T09:26:23.834Z,24.80
2017-09-08T09:28:53.084Z,24.80
2017-09-08T09:31:22.895Z,24.70
2017-09-08T09:33:56.246Z,24.80
2017-09-08T09:36:29.473Z,24.80
2017-09-08T09:39:00.361Z,24.60
2017-09-08T09:41:29.815Z,24.70
2017-09-08T09:43:58.958Z,24.50
2017-09-08T09:46:29.647Z,25.00
2017-09-08T09:48:58.722Z,25.00
2017-09-08T09:51:27.860Z,24.90
2017-09-08T09:53:57.478Z,25.00
2017-09-08T09:56:28.454Z,24.80
2017-09-08T09:58:59.074Z,24.80
2017-09-08T10:01:29.117Z,25.20
2017-09-08T10:03:59.789Z,25.20
2017-09-08T10:06:28.918Z,25.40
2017-09-08T10:08:58.276Z,25.40
2017-09-08T10:11:28.388Z,25.00
2017-09-08T10:13:57.464Z,25.20
2017-09-08T10:16:27.355Z,25.20
2017-09-08T10:18:57.324Z,25.20
2017-09-08T10:21:26.872Z,25.10
2017-09-08T10:23:55.768Z,25.30
2017-09-08T10:26:24.859Z,25.10
2017-09-08T10:28:53.642Z,25.10
2017-09-08T10:31:23.043Z,25.20
2017-09-08T10:33:53.032Z,25.10
2017-09-08T10:36:24.009Z,25.10
2017-09-08T10:38:53.272Z,25.20
2017-09-08T10:41:22.355Z,25.20
2017-09-08T10:43:52.496Z,25.10
2017-09-08T10:46:21.714Z,25.20
2017-09-08T10:48:50.654Z,25.30
2017-09-08T10:51:20.811Z,25.00
2017-09-08T10:53:49.958Z,25.00
2017-09-08T10:56:19.234Z,25.00
2017-09-08T10:58:48.793Z,24.70
2017-09-08T11:01:18.186Z,24.80
2017-09-08T11:03:48.081Z,24.80
2017-09-08T11:06:17.038Z,24.80
2017-09-08T11:08:45.976Z,25.10
2017-09-08T11:11:15.031Z,25.10
2017-09-08T11:13:44.677Z,25.50
2017-09-08T11:16:15.118Z,25.50
2017-09-08T11:18:44.061Z,25.90
2017-09-08T11:21:13.932Z,26.30
2017-09-08T11:23:43.226Z,26.30
2017-09-08T11:26:13.517Z,26.00
2017-09-08T11:28:43.567Z,25.60
2017-09-08T11:31:12.817Z,25.50
2017-09-08T11:33:48.580Z,26.10
2017-09-08T11:39:22.162Z,28.50
2017-09-08T11:41:52.557Z,29.20
2017-09-08T11:44:21.552Z,30.00
2017-09-08T11:46:50.706Z,30.00
2017-09-08T11:49:20.820Z,28.80
2017-09-08T11:51:49.926Z,28.80
2017-09-08T11:54:19.836Z,28.80
2017-09-08T11:56:49.754Z,28.80
2017-09-08T11:59:18.849Z,28.70
2017-09-08T12:01:48.110Z,29.10
2017-09-08T12:04:17.893Z,28.90
2017-09-08T12:06:47.833Z,28.20
2017-09-08T12:09:17.382Z,28.30
2017-09-08T12:11:47.342Z,26.70
2017-09-08T12:14:16.478Z,26.90
2017-09-08T12:16:46.653Z,27.00
2017-09-08T12:19:15.920Z,27.30
2017-09-08T12:21:46.144Z,27.40
2017-09-08T12:24:16.332Z,27.70
2017-09-08T12:26:45.661Z,28.00
2017-09-08T12:29:16.007Z,28.50
2017-09-08T12:31:45.693Z,28.50
2017-09-08T12:34:14.933Z,29.00
2017-09-08T12:36:43.889Z,29.60
2017-09-08T12:39:13.805Z,30.00
2017-09-08T12:41:43.078Z,30.00
2017-09-08T12:44:12.099Z,30.10
2017-09-08T12:46:40.989Z,30.10
2017-09-08T12:49:10.432Z,29.30
2017-09-08T12:51:41.023Z,28.00
2017-09-08T12:54:10.120Z,27.30
2017-09-08T12:56:39.131Z,27.50
2017-09-08T12:59:08.492Z,27.70
2017-09-08T13:01:37.494Z,27.70
2017-09-08T13:04:07.425Z,26.90
2017-09-08T13:06:36.928Z,26.90
2017-09-08T13:09:06.922Z,26.70
2017-09-08T13:11:36.360Z,26.40
2017-09-08T13:14:05.652Z,26.60
2017-09-08T13:16:35.676Z,26.60
2017-09-08T13:19:05.012Z,26.50
2017-09-08T13:21:34.448Z,26.30
2017-09-08T13:24:03.876Z,26.80
2017-09-08T13:26:32.972Z,27.70
2017-09-08T13:29:02.065Z,28.10
2017-09-08T13:31:33.193Z,28.00
2017-09-08T13:34:02.660Z,27.90
2017-09-08T13:36:31.737Z,27.60
2017-09-08T13:39:01.807Z,27.40
2017-09-08T13:41:31.654Z,27.70
2017-09-08T13:44:01.940Z,27.70
2017-09-08T13:46:30.756Z,27.00
2017-09-08T13:49:00.569Z,26.70
2017-09-08T13:51:31.202Z,26.40
2017-09-08T13:54:01.080Z,26.20
2017-09-08T13:56:31.502Z,26.20
2017-09-08T13:59:02.294Z,26.00
2017-09-08T14:01:31.447Z,25.60
2017-09-08T14:04:00.367Z,25.70
2017-09-08T14:06:29.394Z,25.90
2017-09-08T14:08:58.966Z,25.80
2017-09-08T14:11:27.855Z,25.50
2017-09-08T14:13:56.723Z,25.50
2017-09-08T14:16:25.844Z,25.70
2017-09-08T14:18:55.048Z,25.50
2017-09-08T14:21:24.097Z,25.50
2017-09-08T14:23:53.815Z,25.50
2017-09-08T14:26:22.780Z,25.40
2017-09-08T14:28:52.003Z,25.40
2017-09-08T14:31:21.538Z,25.20
2017-09-08T14:33:51.652Z,25.30
2017-09-08T14:36:20.788Z,25.30
2017-09-08T14:38:51.455Z,25.00
2017-09-08T14:41:21.909Z,25.20
2017-09-08T14:43:51.892Z,25.30
2017-09-08T14:46:22.239Z,25.20
2017-09-08T14:48:52.710Z,25.10
2017-09-08T14:51:22.302Z,25.00
2017-09-08T14:53:51.499Z,24.70
2017-09-08T14:56:20.449Z,24.60
2017-09-08T14:58:49.912Z,24.70
2017-09-08T15:01:20.499Z,24.50
2017-09-08T15:03:50.633Z,24.40
2017-09-08T15:06:21.329Z,24.50
2017-09-08T15:08:50.657Z,24.40
2017-09-08T15:11:20.400Z,24.40
2017-09-08T15:13:51.339Z,24.30
2017-09-08T15:16:20.894Z,24.30
2017-09-08T15:18:50.635Z,24.40
2017-09-08T15:21:21.959Z,24.20
2017-09-08T15:23:51.507Z,24.20
2017-09-08T15:26:21.889Z,24.20
2017-09-08T15:28:53.303Z,24.10
2017-09-08T15:31:22.782Z,24.10
2017-09-08T15:33:52.086Z,24.30
2017-09-08T15:36:23.969Z,24.20
2017-09-08T15:38:54.363Z,24.20
2017-09-08T15:41:23.894Z,24.30
2017-09-08T15:43:53.894Z,24.30
2017-09-08T15:46:24.065Z,24.40
2017-09-08T15:48:53.607Z,24.40
2017-09-08T15:51:24.061Z,24.30
2017-09-08T15:53:53.862Z,24.10
2017-09-08T15:56:26.472Z,24.00
2017-09-08T15:58:55.971Z,24.10
2017-09-08T16:01:26.701Z,24.10
2017-09-08T16:03:58.952Z,24.00
2017-09-08T16:06:28.979Z,24.10
2017-09-08T16:08:58.959Z,24.10
2017-09-08T16:11:28.891Z,24.20
2017-09-08T16:13:59.503Z,24.30
2017-09-08T16:16:30.230Z,24.30
2017-09-08T16:19:00.735Z,24.20
2017-09-08T16:21:29.900Z,24.20
2017-09-08T16:23:59.005Z,24.10
2017-09-08T16:26:28.711Z,24.10
2017-09-08T16:29:00.987Z,24.00
2017-09-08T16:31:32.064Z,24.10
2017-09-08T16:34:02.198Z,24.00
2017-09-08T16:36:31.422Z,24.00
2017-09-08T16:39:01.149Z,24.00
2017-09-08T16:41:31.268Z,24.00
2017-09-08T16:44:00.873Z,24.00
2017-09-08T16:46:30.503Z,24.10
2017-09-08T16:48:59.738Z,24.10
2017-09-08T16:51:29.178Z,24.10
2017-09-08T16:53:58.895Z,24.10
2017-09-08T16:56:28.792Z,24.30
2017-09-08T16:58:57.900Z,24.30
2017-09-08T17:01:27.448Z,24.30
2017-09-08T17:03:57.494Z,24.30
2017-09-08T17:06:27.704Z,24.40
2017-09-08T17:08:58.626Z,24.30
2017-09-08T17:11:28.396Z,24.30
2017-09-08T17:13:58.155Z,24.30
2017-09-08T17:16:28.032Z,24.10
2017-09-08T17:19:00.827Z,24.10
2017-09-08T17:21:31.091Z,24.10
2017-09-08T17:24:01.427Z,24.20
2017-09-08T17:26:32.145Z,24.20
2017-09-08T17:29:02.024Z,24.10
2017-09-08T17:31:31.796Z,24.10
2017-09-08T17:34:02.362Z,24.10
2017-09-08T17:36:32.905Z,22.90
2017-09-08T17:39:03.508Z,24.10
2017-09-08T17:41:33.447Z,24.10
2017-09-08T17:44:03.516Z,24.10
2017-09-08T17:46:33.719Z,24.00
2017-09-08T17:49:02.819Z,24.00
2017-09-08T17:51:33.042Z,24.00
2017-09-08T17:54:02.727Z,23.90
2017-09-08T17:56:34.652Z,24.00
2017-09-08T17:59:04.282Z,24.00
2017-09-08T18:01:34.546Z,24.00
2017-09-08T18:04:04.513Z,23.90
2017-09-08T18:06:34.842Z,23.90
2017-09-08T18:09:05.031Z,23.80
2017-09-08T18:11:35.576Z,23.80
2017-09-08T18:14:10.547Z,23.80
2017-09-08T18:16:41.897Z,23.80
2017-09-08T18:19:22.997Z,23.80
2017-09-08T18:21:53.210Z,23.80
2017-09-08T18:24:26.877Z,23.80
2017-09-08T18:27:01.631Z,23.80
2017-09-08T18:29:33.196Z,23.80
2017-09-08T18:32:06.167Z,23.70
2017-09-08T18:34:35.832Z,23.80
2017-09-08T18:37:04.824Z,23.80
2017-09-08T18:39:35.154Z,23.60
2017-09-08T18:42:06.559Z,23.60
2017-09-08T18:44:36.707Z,23.70
2017-09-08T18:47:08.948Z,23.60
2017-09-08T18:49:40.309Z,23.60
2017-09-08T18:52:14.953Z,23.60
2017-09-08T18:54:48.301Z,23.60
2017-09-08T18:57:25.728Z,23.50
2017-09-08T19:00:10.157Z,23.50
2017-09-08T19:02:42.355Z,23.40
2017-09-08T19:05:15.903Z,23.40
2017-09-08T19:07:51.283Z,23.40
2017-09-08T19:10:32.325Z,23.30
2017-09-08T19:13:14.606Z,23.30
2017-09-08T19:16:01.862Z,23.30
2017-09-08T19:18:32.183Z,23.30
2017-09-08T19:21:04.183Z,23.30
2017-09-08T19:23:36.907Z,23.30
2017-09-08T19:26:07.293Z,23.30
2017-09-08T19:28:37.191Z,23.30
2017-09-08T19:31:13.601Z,23.30
2017-09-08T19:36:49.362Z,23.30
2017-09-08T19:39:26.217Z,23.10
2017-09-08T19:44:53.685Z,23.10
2017-09-08T19:47:31.385Z,23.10
2017-09-08T19:50:04.052Z,23.10
2017-09-08T19:52:36.552Z,23.10
2017-09-08T19:55:15.262Z,23.10
2017-09-08T19:57:49.941Z,23.10
2017-09-08T20:00:21.727Z,23.10
2017-09-08T20:02:58.947Z,23.10
2017-09-08T20:05:32.128Z,23.10
2017-09-08T20:08:02.444Z,23.10
2017-09-08T20:10:32.260Z,23.10
2017-09-08T20:13:02.013Z,23.10
2017-09-08T20:15:31.222Z,23.10
2017-09-08T20:18:01.467Z,23.10
2017-09-08T20:20:30.870Z,23.10
2017-09-08T20:23:00.602Z,23.00
2017-09-08T20:25:32.845Z,22.90
2017-09-08T20:28:04.241Z,22.90
2017-09-08T20:30:35.317Z,22.90
2017-09-08T20:33:04.980Z,23.00
2017-09-08T20:35:36.305Z,23.00
2017-09-08T20:38:08.956Z,22.90
2017-09-08T20:40:45.682Z,22.90
2017-09-08T20:43:19.086Z,22.90
2017-09-08T20:45:49.961Z,22.80
2017-09-08T20:48:20.374Z,22.80
2017-09-08T20:50:49.790Z,22.80
2017-09-08T20:53:20.071Z,22.80
2017-09-08T20:55:49.583Z,22.80
2017-09-08T20:58:19.322Z,22.80
2017-09-08T21:00:49.174Z,22.80
2017-09-08T21:03:19.401Z,22.80
2017-09-08T21:05:49.647Z,22.80
2017-09-08T21:08:18.586Z,22.80
2017-09-08T21:10:48.119Z,22.80
2017-09-08T21:13:17.092Z,22.80
2017-09-08T21:15:46.083Z,22.80
2017-09-08T21:18:15.387Z,22.80
2017-09-08T21:20:44.374Z,22.80
2017-09-08T21:23:13.261Z,22.80
2017-09-08T21:25:42.298Z,22.90
2017-09-08T21:28:11.245Z,22.90
2017-09-08T21:30:40.763Z,23.00
2017-09-08T21:33:09.960Z,23.00
2017-09-08T21:35:39.795Z,23.00
2017-09-08T21:38:09.368Z,23.00
2017-09-08T21:40:39.983Z,23.00
2017-09-08T21:43:10.877Z,23.00
2017-09-08T21:45:40.644Z,23.00
2017-09-08T21:48:10.872Z,23.00
2017-09-08T21:50:40.696Z,22.90
2017-09-08T21:53:10.453Z,22.90
2017-09-08T21:55:39.901Z,23.00
2017-09-08T21:58:09.755Z,22.90
2017-09-08T22:00:38.810Z,23.00
2017-09-08T22:03:08.316Z,23.00
2017-09-08T22:05:37.507Z,23.00
2017-09-08T22:08:06.506Z,23.00
2017-09-08T22:10:36.216Z,23.00
2017-09-08T22:13:05.395Z,23.00
2017-09-08T22:15:35.262Z,23.10
2017-09-08T22:18:04.325Z,23.00
2017-09-08T22:20:33.625Z,23.00
2017-09-08T22:23:03.972Z,23.00
2017-09-08T22:25:33.935Z,22.90
2017-09-08T22:28:03.064Z,22.90
2017-09-08T22:30:33.189Z,22.80
2017-09-08T22:33:02.365Z,22.80
2017-09-08T22:35:31.531Z,22.80
2017-09-08T22:38:01.701Z,22.80
2017-09-08T22:40:30.947Z,22.80
2017-09-08T22:42:59.989Z,22.80
2017-09-08T22:45:29.083Z,22.80
2017-09-08T22:47:58.186Z,22.80
2017-09-08T22:50:27.496Z,22.90
2017-09-08T22:52:56.792Z,22.90
2017-09-08T22:55:26.364Z,22.90
2017-09-08T22:57:55.261Z,22.90
2017-09-08T23:00:24.337Z,23.00
2017-09-08T23:02:53.783Z,23.00
2017-09-08T23:05:23.493Z,23.10
2017-09-08T23:07:53.206Z,23.00
2017-09-08T23:10:22.305Z,23.00
2017-09-08T23:12:51.439Z,23.00
2017-09-08T23:15:20.502Z,23.00
2017-09-08T23:17:50.304Z,23.10
2017-09-08T23:20:19.204Z,23.10
2017-09-08T23:22:48.098Z,23.10
2017-09-08T23:25:18.046Z,23.10
2017-09-08T23:27:47.921Z,23.00
2017-09-08T23:30:18.667Z,23.10
2017-09-08T23:32:49.388Z,23.10
2017-09-08T23:35:19.330Z,23.10
2017-09-08T23:37:48.310Z,23.20
2017-09-08T23:40:17.698Z,23.20
2017-09-08T23:42:47.075Z,23.20
2017-09-08T23:45:16.001Z,23.20
2017-09-08T23:47:45.937Z,23.30
2017-09-08T23:50:15.003Z,23.20
2017-09-08T23:52:45.124Z,23.20
2017-09-08T23:55:14.833Z,23.20
2017-09-08T23:57:44.084Z,23.20
